createdAt,value
2022-08-01T00:00:28.265Z,0.00
2022-08-01T00:05:17.856Z,0.00
2022-08-01T00:10:23.881Z,0.00
2022-08-01T00:15:29.859Z,0.00
2022-08-01T00:20:19.020Z,0.00
2022-08-01T00:25:33.757Z,0.00
2022-08-01T00:30:32.448Z,0.00
2022-08-01T00:35:19.999Z,0.00
2022-08-01T00:40:26.091Z,0.00
2022-08-01T00:45:31.914Z,0.00
2022-08-01T00:50:21.037Z,0.00
2022-08-01T00:55:27.304Z,0.00
2022-08-01T01:00:52.174Z,0.00
2022-08-01T01:05:21.394Z,0.00
2022-08-01T01:10:27.598Z,0.00
2022-08-01T01:15:16.455Z,0.00
2022-08-01T01:20:22.560Z,0.00
2022-08-01T01:25:29.778Z,0.00
2022-08-01T01:30:17.661Z,0.00
2022-08-01T01:35:23.923Z,0.00
2022-08-01T01:40:29.806Z,0.00
2022-08-01T01:45:19.541Z,0.00
2022-08-01T01:50:25.136Z,0.00
2022-08-01T01:55:30.702Z,0.00
2022-08-01T02:00:19.751Z,0.00
2022-08-01T02:05:25.703Z,0.00
2022-08-01T02:10:31.466Z,0.00
2022-08-01T02:15:20.673Z,0.00
2022-08-01T02:20:26.587Z,0.00
2022-08-01T02:25:32.570Z,0.00
2022-08-01T02:30:21.454Z,0.00
2022-08-01T02:35:27.618Z,0.00
2022-08-01T02:40:16.739Z,0.00
2022-08-01T02:45:22.679Z,0.00
2022-08-01T02:50:28.262Z,0.00
2022-08-01T02:55:17.685Z,0.00
2022-08-01T03:00:24.715Z,0.00
2022-08-01T03:05:30.032Z,0.00
2022-08-01T03:10:18.999Z,0.00
2022-08-01T03:15:25.568Z,0.00
2022-08-01T03:20:31.378Z,0.00
2022-08-01T03:25:20.454Z,0.00
2022-08-01T03:30:26.197Z,0.00
2022-08-01T03:35:32.368Z,0.00
2022-08-01T03:40:21.260Z,0.26
2022-08-01T03:45:27.264Z,1.16
2022-08-01T03:50:16.092Z,2.09
2022-08-01T03:55:22.178Z,3.47
2022-08-01T04:00:28.246Z,5.02
2022-08-01T04:05:17.655Z,6.93
2022-08-01T04:10:23.735Z,9.30
2022-08-01T04:15:29.816Z,12.15
2022-08-01T04:20:18.986Z,18.72
2022-08-01T04:25:24.972Z,27.58
2022-08-01T04:30:31.024Z,29.27
2022-08-01T04:35:23.413Z,35.45
2022-08-01T04:40:26.120Z,42.11
2022-08-01T04:45:31.933Z,47.42
2022-08-01T04:50:21.000Z,55.91
2022-08-01T04:55:27.195Z,45.68
2022-08-01T05:00:16.133Z,72.57
2022-08-01T05:05:22.655Z,86.17
2022-08-01T05:10:28.835Z,93.74
2022-08-01T05:15:17.776Z,84.21
2022-08-01T05:20:24.723Z,88.82
2022-08-01T05:25:49.654Z,83.15
2022-08-01T05:30:18.811Z,89.12
2022-08-01T05:35:24.960Z,79.96
2022-08-01T05:40:31.118Z,76.40
2022-08-01T05:45:20.106Z,83.76
2022-08-01T05:50:25.922Z,85.95
2022-08-01T05:55:33.867Z,102.77
2022-08-01T06:00:21.004Z,126.28
2022-08-01T06:05:26.468Z,116.01
2022-08-01T06:10:32.569Z,220.52
2022-08-01T06:15:21.715Z,223.87
2022-08-01T06:20:27.703Z,243.49
2022-08-01T06:25:20.683Z,231.97
2022-08-01T06:30:22.758Z,347.63
2022-08-01T06:35:28.805Z,325.40
2022-08-01T06:40:17.888Z,384.70
2022-08-01T06:45:24.461Z,298.18
2022-08-01T06:50:29.852Z,341.38
2022-08-01T06:55:18.891Z,411.59
2022-08-01T07:00:24.808Z,278.44
2022-08-01T07:05:30.356Z,302.66
2022-08-01T07:10:19.350Z,236.15
2022-08-01T07:15:25.437Z,250.42
2022-08-01T07:20:36.271Z,338.21
2022-08-01T07:25:20.569Z,278.34
2022-08-01T07:30:26.623Z,294.67
2022-08-01T07:35:32.598Z,268.72
2022-08-01T07:40:21.769Z,314.51
2022-08-01T07:45:28.103Z,331.15
2022-08-01T07:50:16.576Z,247.84
2022-08-01T07:55:22.796Z,198.58
2022-08-01T08:00:29.021Z,219.46
2022-08-01T08:05:51.313Z,399.24
2022-08-01T08:10:23.491Z,547.87
2022-08-01T08:15:29.314Z,423.05
2022-08-01T08:20:19.399Z,362.56
2022-08-01T08:25:26.693Z,330.80
2022-08-01T08:30:30.505Z,323.44
2022-08-01T08:35:22.960Z,878.51
2022-08-01T08:40:25.580Z,865.01
2022-08-01T08:45:58.645Z,792.00
2022-08-01T08:50:20.643Z,409.05
2022-08-01T08:55:26.511Z,136.72
2022-08-01T09:00:32.624Z,221.38
2022-08-01T09:05:21.094Z,255.55
2022-08-01T09:10:27.063Z,220.54
2022-08-01T09:15:16.165Z,562.86
2022-08-01T09:20:22.288Z,652.00
2022-08-01T09:25:29.875Z,828.30
2022-08-01T09:30:19.614Z,674.35
2022-08-01T09:35:23.487Z,366.99
2022-08-01T09:40:29.483Z,208.74
2022-08-01T09:45:23.311Z,198.88
2022-08-01T09:50:24.320Z,649.61
2022-08-01T09:55:30.832Z,825.46
2022-08-01T10:00:42.753Z,337.36
2022-08-01T10:05:25.922Z,149.37
2022-08-01T10:10:32.872Z,592.03
2022-08-01T10:15:21.039Z,616.21
2022-08-01T10:20:30.532Z,248.14
2022-08-01T10:25:42.260Z,291.13
2022-08-01T10:30:23.713Z,671.77
2022-08-01T10:35:47.222Z,356.66
2022-08-01T10:40:30.076Z,511.66
2022-08-01T10:45:23.561Z,746.53
2022-08-01T10:50:29.210Z,292.90
2022-08-01T10:55:18.084Z,219.49
2022-08-01T11:00:25.293Z,206.35
2022-08-01T11:05:30.757Z,389.59
2022-08-01T11:10:19.843Z,504.91
2022-08-01T11:15:29.056Z,247.79
2022-08-01T11:20:31.877Z,368.31
2022-08-01T11:25:20.970Z,763.14
2022-08-01T11:30:27.067Z,227.82
2022-08-01T11:35:33.032Z,528.80
2022-08-01T11:40:22.949Z,825.28
2022-08-01T11:45:28.301Z,674.21
2022-08-01T11:50:17.129Z,706.21
2022-08-01T11:55:23.275Z,763.33
2022-08-01T12:00:29.430Z,388.66
2022-08-01T12:05:18.811Z,569.98
2022-08-01T12:10:24.868Z,566.60
2022-08-01T12:15:31.902Z,352.15
2022-08-01T12:20:20.060Z,219.73
2022-08-01T12:25:26.006Z,206.64
2022-08-01T12:30:32.401Z,210.54
2022-08-01T12:35:21.325Z,233.17
2022-08-01T12:40:27.239Z,289.58
2022-08-01T12:45:34.417Z,324.80
2022-08-01T12:50:21.905Z,356.89
2022-08-01T12:55:34.324Z,409.85
2022-08-01T13:00:17.058Z,714.78
2022-08-01T13:05:22.969Z,715.79
2022-08-01T13:10:29.066Z,911.98
2022-08-01T13:15:17.995Z,625.81
2022-08-01T13:20:24.427Z,483.84
2022-08-01T13:25:30.352Z,820.94
2022-08-01T13:30:19.370Z,626.50
2022-08-01T13:35:25.225Z,658.07
2022-08-01T13:40:31.833Z,591.51
2022-08-01T13:45:22.191Z,474.78
2022-08-01T13:50:25.587Z,374.53
2022-08-01T13:55:35.149Z,251.74
2022-08-01T14:00:20.720Z,364.12
2022-08-01T14:05:26.164Z,339.45
2022-08-01T14:10:32.847Z,468.00
2022-08-01T14:15:37.559Z,443.40
2022-08-01T14:20:27.381Z,415.96
2022-08-01T14:25:23.792Z,406.86
2022-08-01T14:30:22.640Z,582.97
2022-08-01T14:35:28.608Z,433.84
2022-08-01T14:40:19.709Z,306.11
2022-08-01T14:45:23.824Z,550.75
2022-08-01T14:50:29.385Z,211.27
2022-08-01T14:55:18.405Z,198.41
2022-08-01T15:00:24.779Z,409.06
2022-08-01T15:05:30.892Z,467.37
2022-08-01T15:10:20.003Z,327.30
2022-08-01T15:15:26.088Z,261.38
2022-08-01T15:20:32.216Z,130.92
2022-08-01T15:25:21.226Z,344.13
2022-08-01T15:30:27.531Z,172.08
2022-08-01T15:35:33.352Z,200.77
2022-08-01T15:40:22.341Z,352.15
2022-08-01T15:45:47.049Z,390.41
2022-08-01T15:50:17.117Z,337.81
2022-08-01T15:55:23.210Z,237.65
2022-08-01T16:00:32.999Z,139.28
2022-08-01T16:05:20.378Z,116.52
2022-08-01T16:10:24.898Z,131.26
2022-08-01T16:15:36.058Z,158.79
2022-08-01T16:20:19.948Z,205.80
2022-08-01T16:25:26.089Z,158.66
2022-08-01T16:30:32.050Z,140.11
2022-08-01T16:35:21.004Z,131.14
2022-08-01T16:40:27.330Z,145.99
2022-08-01T16:45:38.235Z,128.37
2022-08-01T16:50:28.688Z,108.34
2022-08-01T16:55:27.892Z,101.73
2022-08-01T17:00:21.357Z,98.42
2022-08-01T17:05:22.608Z,118.62
2022-08-01T17:10:28.677Z,118.78
2022-08-01T17:15:17.705Z,92.77
2022-08-01T17:20:24.118Z,75.96
2022-08-01T17:25:29.801Z,71.16
2022-08-01T17:30:18.815Z,64.63
2022-08-01T17:35:24.893Z,57.84
2022-08-01T17:40:40.149Z,51.46
2022-08-01T17:45:28.114Z,43.82
2022-08-01T17:50:25.651Z,39.68
2022-08-01T17:55:55.757Z,35.21
2022-08-01T18:00:20.815Z,30.48
2022-08-01T18:05:37.024Z,26.38
2022-08-01T18:10:16.897Z,22.87
2022-08-01T18:15:26.053Z,20.19
2022-08-01T18:20:27.692Z,17.40
2022-08-01T18:25:16.548Z,14.83
2022-08-01T18:30:22.664Z,12.29
2022-08-01T18:35:51.397Z,9.71
2022-08-01T18:40:22.847Z,7.14
2022-08-01T18:45:23.686Z,4.59
2022-08-01T18:50:29.721Z,2.56
2022-08-01T18:55:18.792Z,0.88
2022-08-01T19:00:24.912Z,0.25
2022-08-01T19:05:31.800Z,0.04
2022-08-01T19:10:19.229Z,0.00
2022-08-01T19:15:25.286Z,0.00
2022-08-01T19:20:31.396Z,0.00
2022-08-01T19:25:20.867Z,0.00
2022-08-01T19:30:26.450Z,0.00
2022-08-01T19:35:32.735Z,0.00
2022-08-01T19:40:27.522Z,0.00
2022-08-01T19:45:27.643Z,0.00
2022-08-01T19:50:16.455Z,0.00
2022-08-01T19:55:22.438Z,0.00
2022-08-01T20:00:28.912Z,0.00
2022-08-01T20:05:17.016Z,0.00
2022-08-01T20:10:23.276Z,0.00
2022-08-01T20:15:29.117Z,0.00
2022-08-01T20:20:18.554Z,0.00
2022-08-01T20:25:24.261Z,0.00
2022-08-01T20:30:30.558Z,0.00
2022-08-01T20:35:51.945Z,0.00
2022-08-01T20:40:26.868Z,0.00
2022-08-01T20:45:31.587Z,0.00
2022-08-01T20:50:27.169Z,0.00
2022-08-01T20:55:26.432Z,0.00
2022-08-01T21:00:34.412Z,0.00
2022-08-01T21:05:21.674Z,0.00
2022-08-01T21:10:27.929Z,0.00
2022-08-01T21:15:16.787Z,0.00
2022-08-01T21:20:22.883Z,0.00
2022-08-01T21:25:29.011Z,0.00
2022-08-01T21:30:17.999Z,0.00
2022-08-01T21:35:24.122Z,0.00
2022-08-01T21:40:30.328Z,0.00
2022-08-01T21:45:19.257Z,0.00
2022-08-01T21:50:25.271Z,0.00
2022-08-01T21:55:34.913Z,0.00
2022-08-01T22:00:25.171Z,0.00
2022-08-01T22:05:50.561Z,0.00
2022-08-01T22:10:32.010Z,0.00
2022-08-01T22:15:21.020Z,0.00
2022-08-01T22:20:27.437Z,0.00
2022-08-01T22:25:33.225Z,0.00
2022-08-01T22:30:22.158Z,0.00
2022-08-01T22:35:28.246Z,0.00
2022-08-01T22:40:17.344Z,0.00
2022-08-01T22:45:23.397Z,0.00
2022-08-01T22:50:34.281Z,0.00
2022-08-01T22:55:18.180Z,0.00
2022-08-01T23:00:24.351Z,0.00
2022-08-01T23:05:30.790Z,0.00
2022-08-01T23:10:20.900Z,0.00
2022-08-01T23:15:25.960Z,0.00
2022-08-01T23:20:32.556Z,0.00
2022-08-01T23:25:21.054Z,0.00
2022-08-01T23:30:27.085Z,0.00
2022-08-01T23:35:38.171Z,0.00
2022-08-01T23:40:24.938Z,0.00
2022-08-01T23:45:28.562Z,0.00
2022-08-01T23:50:16.666Z,0.00
2022-08-01T23:55:27.757Z,0.00
